Terminal Aerodrome Forecast
Issued by NWS

Current Version | Previous Version | Text Only | Print | Product List | Glossary On
Versions: 1 2 3 4 5 6 7 8 9 10 11 12 13 14 15
000
FTUS42 KEYW 301100
TAFMTH
TAF
KMTH 301129Z 3012/3112 03003KT P6SM FEW025 BKN080
     FM301400 VRB05KT P6SM FEW028=

USA.gov is the U.S. government's official web portal to all federal, state and local government web resources and services.